createdAt,value
2023-01-01T00:01:50.598Z,95953.56
2023-01-01T00:04:18.720Z,95945.25
2023-01-01T00:06:46.488Z,95946.69
2023-01-01T00:09:33.031Z,95948.88
2023-01-01T00:12:02.059Z,95974.72
2023-01-01T00:14:30.240Z,95982.69
2023-01-01T00:16:58.087Z,95970.41
2023-01-01T00:19:26.851Z,95979.28
2023-01-01T00:21:55.205Z,95973.53
2023-01-01T00:24:23.256Z,95976.94
2023-01-01T00:26:50.937Z,95975.03
2023-01-01T00:29:19.950Z,95979.63
2023-01-01T00:31:48.239Z,95989.47
2023-01-01T00:34:15.999Z,95996.16
2023-01-01T00:36:44.380Z,95985.38
2023-01-01T00:39:12.064Z,95985.72
2023-01-01T00:41:39.751Z,95990.03
2023-01-01T00:44:07.586Z,95998.19
2023-01-01T00:46:36.945Z,95996.09
2023-01-01T00:49:04.654Z,95990.34
2023-01-01T00:51:36.972Z,95987.16
2023-01-01T00:54:05.090Z,95993.19
2023-01-01T00:56:33.055Z,95993.19
2023-01-01T00:59:01.801Z,95995.66
2023-01-01T01:01:30.046Z,95991.09
2023-01-01T01:03:59.159Z,95992.13
2023-01-01T01:06:27.371Z,95994.47
2023-01-01T01:08:55.040Z,95990.50
2023-01-01T01:11:25.385Z,95988.88
2023-01-01T01:13:55.966Z,95988.91
2023-01-01T01:16:27.335Z,95985.75
2023-01-01T01:18:57.569Z,95988.22
2023-01-01T01:21:28.354Z,95983.63
2023-01-01T01:23:58.065Z,95980.81
2023-01-01T01:26:28.774Z,95982.44
2023-01-01T01:28:57.486Z,95984.09
2023-01-01T01:31:28.345Z,95984.09
2023-01-01T01:33:57.190Z,95980.47
2023-01-01T01:36:26.880Z,95977.03
2023-01-01T01:38:54.810Z,95979.84
2023-01-01T01:41:28.264Z,95985.09
2023-01-01T01:43:59.635Z,95972.13
2023-01-01T01:46:34.249Z,95980.66
2023-01-01T01:49:06.085Z,95977.38
2023-01-01T01:51:38.339Z,95973.09
2023-01-01T01:54:11.821Z,95969.16
2023-01-01T01:56:46.583Z,95973.25
2023-01-01T01:59:14.981Z,95958.94
2023-01-01T02:01:43.569Z,95969.72
2023-01-01T02:04:12.989Z,95978.84
2023-01-01T02:06:42.908Z,95969.66
2023-01-01T02:09:10.983Z,95973.88
2023-01-01T02:11:39.445Z,95974.41
2023-01-01T02:14:07.595Z,95982.44
2023-01-01T02:16:40.952Z,95978.25
2023-01-01T02:19:18.177Z,95973.88
2023-01-01T02:22:00.766Z,95971.38
2023-01-01T02:24:53.727Z,95964.25
2023-01-01T02:27:30.332Z,95961.56
2023-01-01T02:30:03.104Z,95958.94
2023-01-01T02:32:37.586Z,95959.91
2023-01-01T02:35:23.424Z,95959.16
2023-01-01T02:37:54.750Z,95966.59
2023-01-01T02:40:24.781Z,95958.38
2023-01-01T02:42:54.692Z,95975.41
2023-01-01T02:45:24.106Z,95964.19
2023-01-01T02:47:52.327Z,95980.22
2023-01-01T02:50:23.345Z,95975.28
2023-01-01T02:53:03.080Z,95969.63
2023-01-01T02:55:38.626Z,95974.91
2023-01-01T02:58:32.289Z,95985.69
2023-01-01T03:01:12.736Z,95976.72
2023-01-01T03:03:46.084Z,95985.44
2023-01-01T03:06:27.367Z,95988.34
2023-01-01T03:09:08.726Z,95988.78
2023-01-01T03:11:45.371Z,95991.84
2023-01-01T03:14:19.978Z,95999.19
2023-01-01T03:16:52.395Z,96000.91
2023-01-01T03:19:22.809Z,95999.97
2023-01-01T03:21:53.078Z,96002.78
2023-01-01T03:24:25.434Z,96002.94
2023-01-01T03:26:57.452Z,95999.00
2023-01-01T03:29:28.368Z,95995.22
2023-01-01T03:32:01.341Z,95998.53
2023-01-01T03:34:34.593Z,95982.38
2023-01-01T03:37:06.746Z,95986.00
2023-01-01T03:39:39.143Z,95984.19
2023-01-01T03:42:16.475Z,95988.81
2023-01-01T03:44:48.844Z,95990.97
2023-01-01T03:47:18.549Z,95988.50
2023-01-01T03:49:49.581Z,95993.31
2023-01-01T03:52:29.156Z,95993.13
2023-01-01T03:55:05.469Z,95987.88
2023-01-01T03:57:41.415Z,96000.38
2023-01-01T04:00:16.265Z,96003.19
2023-01-01T04:02:51.021Z,96010.09
2023-01-01T04:05:20.769Z,96003.03
2023-01-01T04:07:52.916Z,96007.41
2023-01-01T04:10:21.206Z,96002.84
2023-01-01T04:12:51.597Z,95999.19
2023-01-01T04:15:21.276Z,95992.41
2023-01-01T04:17:50.925Z,95997.78
2023-01-01T04:20:18.855Z,96005.34
2023-01-01T04:22:47.649Z,96005.06
2023-01-01T04:25:17.361Z,96003.44
2023-01-01T04:27:46.535Z,96008.91
2023-01-01T04:30:16.056Z,96003.09
2023-01-01T04:32:44.112Z,96009.78
2023-01-01T04:35:14.675Z,96006.44
2023-01-01T04:37:44.943Z,96011.09
2023-01-01T04:40:14.895Z,96019.91
2023-01-01T04:42:43.659Z,96010.28
2023-01-01T04:45:14.899Z,96014.13
2023-01-01T04:47:43.315Z,96016.09
2023-01-01T04:50:11.201Z,96024.66
2023-01-01T04:52:41.013Z,96021.03
2023-01-01T04:55:09.371Z,96020.28
2023-01-01T04:57:37.490Z,96024.47
2023-01-01T05:00:06.113Z,96019.38
2023-01-01T05:02:33.876Z,96022.16
2023-01-01T05:05:01.709Z,96020.91
2023-01-01T05:07:29.387Z,96021.28
2023-01-01T05:09:58.748Z,96017.72
2023-01-01T05:12:26.388Z,96024.84
2023-01-01T05:14:54.412Z,96017.66
2023-01-01T05:17:22.088Z,96022.94
2023-01-01T05:19:49.927Z,96030.72
2023-01-01T05:22:17.578Z,96025.03
2023-01-01T05:24:45.565Z,96034.00
2023-01-01T05:27:14.892Z,96030.69
2023-01-01T05:29:42.889Z,96039.03
2023-01-01T05:37:03.983Z,96020.53
2023-01-01T05:39:32.274Z,96030.00
2023-01-01T05:41:59.927Z,96040.28
2023-01-01T05:44:29.991Z,96041.94
2023-01-01T05:46:57.998Z,96050.53
2023-01-01T05:49:25.677Z,96043.84
2023-01-01T05:51:53.335Z,96045.28
2023-01-01T05:54:22.159Z,96048.44
2023-01-01T05:56:49.809Z,96064.94
2023-01-01T05:59:18.225Z,96078.03
2023-01-01T06:01:50.264Z,96092.00
2023-01-01T06:04:18.884Z,96099.59
2023-01-01T06:06:46.589Z,96091.91
2023-01-01T06:09:14.869Z,96092.81
2023-01-01T06:11:43.557Z,96093.59
2023-01-01T06:14:11.560Z,96094.53
2023-01-01T06:16:39.442Z,96094.19
2023-01-01T06:19:09.037Z,96091.44
2023-01-01T06:21:36.696Z,96080.78
2023-01-01T06:24:06.028Z,96081.03
2023-01-01T06:26:34.309Z,96079.59
2023-01-01T06:29:03.036Z,96082.81
2023-01-01T06:31:36.813Z,96080.53
2023-01-01T06:34:09.742Z,96090.53
2023-01-01T06:36:37.507Z,96096.13
2023-01-01T06:39:06.039Z,96110.03
2023-01-01T06:41:33.773Z,96108.00
2023-01-01T06:44:02.321Z,96103.88
2023-01-01T06:46:31.734Z,96109.91
2023-01-01T06:49:02.648Z,96114.34
2023-01-01T06:51:33.463Z,96115.00
2023-01-01T06:54:03.973Z,96113.09
2023-01-01T06:56:32.913Z,96115.72
2023-01-01T06:59:01.500Z,96117.50
2023-01-01T07:01:33.237Z,96114.59
2023-01-01T07:04:02.384Z,96102.84
2023-01-01T07:06:33.548Z,96111.41
2023-01-01T07:09:01.231Z,96116.78
2023-01-01T07:11:29.991Z,96123.22
2023-01-01T07:13:57.659Z,96116.41
2023-01-01T07:16:26.252Z,96126.84
2023-01-01T07:18:54.131Z,96130.38
2023-01-01T07:21:32.337Z,96127.28
2023-01-01T07:24:01.304Z,96134.97
2023-01-01T07:26:31.698Z,96136.31
2023-01-01T07:29:06.894Z,96138.59
2023-01-01T07:31:36.517Z,96150.25
2023-01-01T07:34:04.309Z,96155.84
2023-01-01T07:36:34.532Z,96158.28
2023-01-01T07:39:02.210Z,96169.16
2023-01-01T07:41:30.280Z,96183.03
2023-01-01T07:43:59.823Z,96178.78
2023-01-01T07:46:28.533Z,96183.41
2023-01-01T07:48:56.509Z,96173.03
2023-01-01T07:51:25.405Z,96174.81
2023-01-01T07:53:54.422Z,96178.91
2023-01-01T07:56:22.431Z,96172.81
2023-01-01T07:58:50.119Z,96176.06
2023-01-01T08:01:19.228Z,96167.00
2023-01-01T08:03:52.667Z,96183.00
2023-01-01T08:06:20.746Z,96169.44
2023-01-01T08:08:49.064Z,96168.78
2023-01-01T08:11:19.232Z,96171.75
2023-01-01T08:13:46.863Z,96169.09
2023-01-01T08:16:14.886Z,96179.28
2023-01-01T08:18:42.617Z,96177.31
2023-01-01T08:21:10.687Z,96182.44
2023-01-01T08:23:38.340Z,96180.94
2023-01-01T08:26:06.616Z,96177.91
2023-01-01T08:28:35.612Z,96190.84
2023-01-01T08:31:03.656Z,96190.31
2023-01-01T08:33:31.359Z,96191.81
2023-01-01T08:36:00.150Z,96185.16
2023-01-01T08:38:27.890Z,96195.63
2023-01-01T08:40:55.904Z,96191.84
2023-01-01T08:43:25.409Z,96186.44
2023-01-01T08:45:54.984Z,96192.09
2023-01-01T08:48:28.870Z,96175.03
2023-01-01T08:51:01.398Z,96176.09
2023-01-01T08:53:29.895Z,96175.31
2023-01-01T08:55:58.677Z,96168.69
2023-01-01T08:58:26.509Z,96172.78
2023-01-01T09:00:55.637Z,96171.72
2023-01-01T09:03:24.042Z,96171.53
2023-01-01T09:05:51.773Z,96179.66
2023-01-01T09:08:19.811Z,96181.63
2023-01-01T09:10:47.814Z,96177.72
2023-01-01T09:13:18.927Z,96176.13
2023-01-01T09:15:47.086Z,96181.09
2023-01-01T09:18:16.889Z,96177.72
2023-01-01T09:20:44.653Z,96169.69
2023-01-01T09:23:13.163Z,96160.88
2023-01-01T09:25:40.841Z,96165.22
2023-01-01T09:28:12.256Z,96165.97
2023-01-01T09:30:39.946Z,96170.50
2023-01-01T09:33:07.636Z,96166.47
2023-01-01T09:35:38.495Z,96168.75
2023-01-01T09:38:06.763Z,96166.16
2023-01-01T09:40:51.377Z,96172.13
2023-01-01T09:43:29.631Z,96169.00
2023-01-01T09:46:00.726Z,96169.97
2023-01-01T09:48:31.853Z,96174.84
2023-01-01T09:51:04.363Z,96165.56
2023-01-01T09:53:38.199Z,96168.22
2023-01-01T09:56:07.120Z,96161.72
2023-01-01T09:58:37.881Z,96166.28
2023-01-01T10:01:15.726Z,96157.81
2023-01-01T10:03:49.578Z,96160.59
2023-01-01T10:06:24.983Z,96169.25
2023-01-01T10:09:08.708Z,96166.50
2023-01-01T10:11:46.795Z,96172.78
2023-01-01T10:14:23.361Z,96156.09
2023-01-01T10:16:55.265Z,96159.09
2023-01-01T10:19:29.720Z,96152.09
2023-01-01T10:22:04.913Z,96155.41
2023-01-01T10:24:41.363Z,96152.13
2023-01-01T10:27:20.239Z,96142.38
2023-01-01T10:29:51.261Z,96145.50
2023-01-01T10:32:21.991Z,96142.00
2023-01-01T10:34:51.671Z,96140.19
2023-01-01T10:37:21.684Z,96139.28
2023-01-01T10:39:50.676Z,96141.09
2023-01-01T10:42:18.448Z,96135.81
2023-01-01T10:44:47.675Z,96140.16
2023-01-01T10:47:26.323Z,96135.38
2023-01-01T10:49:56.976Z,96121.38
2023-01-01T10:52:31.556Z,96115.47
2023-01-01T10:55:00.772Z,96120.75
2023-01-01T10:57:34.915Z,96115.56
2023-01-01T11:00:24.132Z,96109.00
2023-01-01T11:03:15.401Z,96117.50
2023-01-01T11:06:02.829Z,96114.16
2023-01-01T11:08:34.275Z,96113.22
2023-01-01T11:11:04.105Z,96111.59
2023-01-01T11:13:34.552Z,96116.91
2023-01-01T11:16:02.907Z,96111.94
2023-01-01T11:18:35.952Z,96100.16
2023-01-01T11:21:06.687Z,96097.28
2023-01-01T11:23:37.853Z,96103.75
2023-01-01T11:26:08.229Z,96109.97
2023-01-01T11:28:37.292Z,96105.84
2023-01-01T11:31:11.407Z,96097.88
2023-01-01T11:33:44.555Z,96098.22
2023-01-01T11:36:12.957Z,96092.47
2023-01-01T11:38:42.166Z,96093.06
2023-01-01T11:41:09.918Z,96081.41
2023-01-01T11:43:42.004Z,96081.84
2023-01-01T11:46:12.803Z,96086.22
2023-01-01T11:48:44.552Z,96077.63
2023-01-01T11:51:29.884Z,96071.94
2023-01-01T11:54:24.191Z,96084.31
2023-01-01T11:56:55.802Z,96070.00
2023-01-01T11:59:28.773Z,96068.31
2023-01-01T12:02:00.282Z,96065.94
2023-01-01T12:04:32.524Z,96059.09
2023-01-01T12:07:05.700Z,96064.84
2023-01-01T12:09:42.119Z,96066.34
2023-01-01T12:12:14.205Z,96064.47
2023-01-01T12:14:48.042Z,96057.91
2023-01-01T12:17:21.035Z,96052.16
2023-01-01T12:19:58.116Z,96059.81
2023-01-01T12:22:26.902Z,96056.81
2023-01-01T12:24:56.654Z,96051.28
2023-01-01T12:27:41.636Z,96042.44
2023-01-01T12:30:16.823Z,96039.94
2023-01-01T12:33:12.193Z,96047.78
2023-01-01T12:36:01.974Z,96037.25
2023-01-01T12:38:57.287Z,96038.66
2023-01-01T12:41:37.057Z,96044.41
2023-01-01T12:44:12.516Z,96039.84
2023-01-01T12:46:51.832Z,96037.44
2023-01-01T12:49:36.019Z,96025.69
2023-01-01T12:52:15.687Z,96027.13
2023-01-01T12:55:04.066Z,96025.44
2023-01-01T12:57:36.895Z,96024.75
2023-01-01T13:00:14.134Z,96034.69
2023-01-01T13:02:49.367Z,96034.69
2023-01-01T13:05:23.632Z,96038.47
2023-01-01T13:07:57.111Z,96052.63
2023-01-01T13:10:28.951Z,96036.06
2023-01-01T13:12:58.206Z,96042.97
2023-01-01T13:15:49.096Z,96038.31
2023-01-01T13:18:24.736Z,96038.31
2023-01-01T13:21:00.202Z,96032.81
2023-01-01T13:23:49.371Z,96024.38
2023-01-01T13:26:49.295Z,96025.84
2023-01-01T13:29:49.610Z,96028.56
2023-01-01T13:32:17.791Z,96021.97
2023-01-01T13:35:05.606Z,96023.38
2023-01-01T13:37:44.973Z,96021.75
2023-01-01T13:40:53.457Z,96025.50
2023-01-01T13:43:27.640Z,96036.06
2023-01-01T13:46:15.267Z,96030.84
2023-01-01T13:49:07.383Z,96026.66
2023-01-01T13:52:05.405Z,96021.44
2023-01-01T13:54:56.131Z,96019.78
2023-01-01T13:57:45.492Z,96025.38
2023-01-01T14:00:22.277Z,96034.53
2023-01-01T14:02:58.978Z,96027.97
2023-01-01T14:05:33.641Z,96027.06
2023-01-01T14:08:04.273Z,96031.16
2023-01-01T14:10:35.206Z,96033.56
2023-01-01T14:13:16.375Z,96038.81
2023-01-01T14:15:53.430Z,96042.38
2023-01-01T14:18:26.892Z,96042.56
2023-01-01T14:20:55.164Z,96042.75
2023-01-01T14:23:31.097Z,96039.22
2023-01-01T14:26:01.172Z,96042.56
2023-01-01T14:28:31.496Z,96043.25
2023-01-01T14:31:08.626Z,96047.38
2023-01-01T14:33:40.628Z,96045.31
2023-01-01T14:36:18.990Z,96041.16
2023-01-01T14:38:49.501Z,96039.03
2023-01-01T14:41:21.393Z,96043.16
2023-01-01T14:43:52.048Z,96048.59
2023-01-01T14:46:22.092Z,96045.41
2023-01-01T14:48:54.303Z,96049.81
2023-01-01T14:51:25.085Z,96055.06
2023-01-01T14:53:54.830Z,96046.16
2023-01-01T14:56:28.365Z,96048.25
2023-01-01T14:59:06.267Z,96046.94
2023-01-01T15:01:34.080Z,96052.78
2023-01-01T15:04:16.861Z,96042.84
2023-01-01T15:06:45.684Z,96040.78
2023-01-01T15:09:16.877Z,96048.47
2023-01-01T15:11:45.088Z,96048.78
2023-01-01T15:14:31.742Z,96040.59
2023-01-01T15:17:05.167Z,96046.41
2023-01-01T15:19:36.497Z,96039.47
2023-01-01T15:22:10.852Z,96041.78
2023-01-01T15:24:39.587Z,96034.69
2023-01-01T15:27:15.378Z,96033.91
2023-01-01T15:29:47.537Z,96038.06
2023-01-01T15:32:17.287Z,96043.38
2023-01-01T15:34:52.425Z,96037.63
2023-01-01T15:37:24.041Z,96035.22
2023-01-01T15:39:53.772Z,96027.44
2023-01-01T15:42:33.588Z,96033.97
2023-01-01T15:45:21.081Z,96032.09
2023-01-01T15:47:50.855Z,96027.19
2023-01-01T15:50:25.229Z,96032.50
2023-01-01T15:52:56.779Z,96022.84
2023-01-01T15:55:27.255Z,96036.34
2023-01-01T15:57:56.338Z,96023.84
2023-01-01T16:00:27.084Z,96031.75
2023-01-01T16:02:59.498Z,96031.28
2023-01-01T16:05:29.033Z,96026.13
2023-01-01T16:08:01.964Z,96031.16
2023-01-01T16:10:29.738Z,96033.16
2023-01-01T16:12:57.925Z,96033.47
2023-01-01T16:15:26.241Z,96028.84
2023-01-01T16:17:55.610Z,96027.56
2023-01-01T16:20:25.313Z,96034.50
2023-01-01T16:22:54.695Z,96038.75
2023-01-01T16:25:23.730Z,96049.72
2023-01-01T16:27:51.703Z,96042.03
2023-01-01T16:30:19.476Z,96039.16
2023-01-01T16:32:49.342Z,96047.81
2023-01-01T16:35:17.134Z,96045.38
2023-01-01T16:37:45.511Z,96045.47
2023-01-01T16:40:15.372Z,96042.94
2023-01-01T16:42:43.131Z,96037.41
2023-01-01T16:45:18.733Z,96036.41
2023-01-01T16:47:47.125Z,96039.31
2023-01-01T16:50:15.008Z,96034.28
2023-01-01T16:52:45.200Z,96026.75
2023-01-01T16:55:14.875Z,96031.03
2023-01-01T16:57:43.776Z,96022.44
2023-01-01T17:00:12.937Z,96030.75
2023-01-01T17:02:41.445Z,96020.72
2023-01-01T17:05:10.487Z,96028.53
2023-01-01T17:07:38.184Z,96026.31
2023-01-01T17:10:06.868Z,96032.44
2023-01-01T17:12:35.887Z,96034.91
2023-01-01T17:15:04.020Z,96027.47
2023-01-01T17:17:31.751Z,96033.56
2023-01-01T17:19:59.669Z,96023.25
2023-01-01T17:22:33.922Z,96022.81
2023-01-01T17:25:01.969Z,96029.34
2023-01-01T17:27:29.602Z,96029.19
2023-01-01T17:29:59.172Z,96032.88
2023-01-01T17:32:26.885Z,96033.13
2023-01-01T17:34:55.770Z,96027.88
2023-01-01T17:37:23.456Z,96027.88
2023-01-01T17:39:51.778Z,96026.03
2023-01-01T17:42:19.485Z,96030.97
2023-01-01T17:44:48.115Z,96029.34
2023-01-01T17:47:17.149Z,96018.59
2023-01-01T17:49:45.566Z,96025.94
2023-01-01T17:52:13.232Z,96017.81
2023-01-01T17:54:41.390Z,96015.19
2023-01-01T17:57:09.004Z,96016.19
2023-01-01T17:59:36.837Z,96012.09
2023-01-01T18:02:05.870Z,96024.09
2023-01-01T18:04:35.582Z,96020.34
2023-01-01T18:07:06.379Z,96015.59
2023-01-01T18:09:37.099Z,96020.91
2023-01-01T18:12:06.226Z,96011.16
2023-01-01T18:14:34.270Z,96018.91
2023-01-01T18:17:01.947Z,96014.34
2023-01-01T18:19:31.017Z,96008.75
2023-01-01T18:22:00.035Z,96014.75
2023-01-01T18:24:27.702Z,96014.63
2023-01-01T18:26:55.348Z,96013.66
2023-01-01T18:29:22.990Z,96009.22
2023-01-01T18:31:51.446Z,96013.22
2023-01-01T18:34:19.903Z,96018.47
2023-01-01T18:36:47.734Z,96010.91
2023-01-01T18:39:22.559Z,96011.09
2023-01-01T18:42:18.730Z,96011.25
2023-01-01T18:44:46.620Z,96004.66
2023-01-01T18:47:16.398Z,96003.84
2023-01-01T18:49:48.833Z,95994.97
2023-01-01T18:52:22.406Z,95993.50
2023-01-01T18:55:01.981Z,95991.66
2023-01-01T18:57:30.319Z,95986.56
2023-01-01T19:00:00.547Z,95996.63
2023-01-01T19:02:35.219Z,96001.38
2023-01-01T19:05:17.002Z,95999.72
2023-01-01T19:07:46.534Z,95987.88
2023-01-01T19:10:16.442Z,95989.50
2023-01-01T19:12:44.534Z,95995.41
2023-01-01T19:15:18.221Z,95990.44
2023-01-01T19:17:46.452Z,95988.94
2023-01-01T19:20:17.950Z,95983.84
2023-01-01T19:22:45.817Z,95980.91
2023-01-01T19:25:39.403Z,95981.13
2023-01-01T19:28:31.252Z,95987.03
2023-01-01T19:31:00.491Z,95979.31
2023-01-01T19:33:28.748Z,95985.84
2023-01-01T19:35:57.921Z,95992.91
2023-01-01T19:38:25.583Z,95991.41
2023-01-01T19:40:54.585Z,95994.34
2023-01-01T19:43:22.423Z,95973.50
2023-01-01T19:45:50.931Z,95977.47
2023-01-01T19:48:19.192Z,95976.69
2023-01-01T19:50:48.188Z,95975.06
2023-01-01T19:53:15.981Z,95977.84
2023-01-01T19:55:43.858Z,95979.66
2023-01-01T19:58:13.086Z,95968.31
2023-01-01T20:00:41.015Z,95962.88
2023-01-01T20:03:51.674Z,95972.75
2023-01-01T20:05:57.429Z,95974.72
2023-01-01T20:08:26.855Z,95976.31
2023-01-01T20:10:54.853Z,95979.59
2023-01-01T20:13:23.966Z,95970.19
2023-01-01T20:15:51.707Z,95981.81
2023-01-01T20:18:19.511Z,95988.53
2023-01-01T20:21:05.641Z,95975.19
2023-01-01T20:23:33.320Z,95977.22
2023-01-01T20:26:01.687Z,95982.38
2023-01-01T20:28:48.502Z,95988.84
2023-01-01T20:31:16.612Z,95975.22
2023-01-01T20:33:44.595Z,95976.22
2023-01-01T20:36:30.614Z,95982.31
2023-01-01T20:38:58.456Z,95982.47
2023-01-01T20:41:26.120Z,95980.81
2023-01-01T20:43:56.598Z,95984.09
2023-01-01T20:46:26.931Z,95985.16
2023-01-01T20:48:54.799Z,95990.53
2023-01-01T20:51:22.844Z,95990.00
2023-01-01T20:53:50.533Z,95982.72
2023-01-01T20:56:19.291Z,95974.81
2023-01-01T20:58:50.271Z,95971.00
2023-01-01T21:01:22.110Z,95968.84
2023-01-01T21:03:49.828Z,95965.88
2023-01-01T21:06:23.775Z,95954.69
2023-01-01T21:08:52.357Z,95950.28
2023-01-01T21:11:20.327Z,95955.69
2023-01-01T21:13:48.893Z,95957.66
2023-01-01T21:16:19.108Z,95962.91
2023-01-01T21:18:49.285Z,95950.09
2023-01-01T21:21:20.205Z,95946.88
2023-01-01T21:23:49.231Z,95961.91
2023-01-01T21:26:20.334Z,95963.06
2023-01-01T21:28:49.099Z,95969.28
2023-01-01T21:31:16.775Z,95976.63
2023-01-01T21:33:45.869Z,95971.38
2023-01-01T21:36:20.048Z,95964.16
2023-01-01T21:38:48.651Z,95961.00
2023-01-01T21:41:20.648Z,95971.22
2023-01-01T21:43:51.938Z,95982.47
2023-01-01T21:46:34.578Z,95977.13
2023-01-01T21:49:05.294Z,95967.63
2023-01-01T21:51:40.605Z,95971.47
2023-01-01T21:54:19.387Z,95967.69
2023-01-01T21:56:54.149Z,95970.22
2023-01-01T21:59:33.003Z,95960.75
2023-01-01T22:02:30.064Z,95971.84
2023-01-01T22:04:58.002Z,95960.13
2023-01-01T22:10:19.509Z,95962.66
2023-01-01T22:12:49.285Z,95958.41
2023-01-01T22:15:31.320Z,95952.47
2023-01-01T22:18:15.755Z,95955.81
2023-01-01T22:20:45.319Z,95950.50
2023-01-01T22:23:29.884Z,95968.03
2023-01-01T22:25:57.582Z,95956.03
2023-01-01T22:28:27.606Z,95961.06
2023-01-01T22:30:59.236Z,95949.31
2023-01-01T22:33:32.590Z,95961.16
2023-01-01T22:36:00.277Z,95958.16
2023-01-01T22:38:34.428Z,95968.06
2023-01-01T22:41:02.895Z,95970.69
2023-01-01T22:43:34.576Z,95966.41
2023-01-01T22:46:11.015Z,95956.75
2023-01-01T22:48:39.931Z,95965.28
2023-01-01T22:51:11.761Z,95957.34
2023-01-01T22:53:40.821Z,95950.38
2023-01-01T22:56:08.901Z,95951.75
2023-01-01T22:58:36.804Z,95946.84
2023-01-01T23:01:04.564Z,95947.41
2023-01-01T23:03:32.536Z,95935.72
2023-01-01T23:06:00.784Z,95940.59
2023-01-01T23:08:28.588Z,95945.44
2023-01-01T23:11:00.609Z,95945.13
2023-01-01T23:13:45.778Z,95946.13
2023-01-01T23:16:13.613Z,95955.28
2023-01-01T23:18:41.705Z,95948.81
2023-01-01T23:21:12.019Z,95936.41
2023-01-01T23:23:41.060Z,95940.75
2023-01-01T23:26:10.625Z,95948.72
2023-01-01T23:28:39.964Z,95944.47
2023-01-01T23:31:09.769Z,95948.47
2023-01-01T23:33:38.402Z,95942.16
2023-01-01T23:36:07.225Z,95942.56
2023-01-01T23:38:35.624Z,95950.78
2023-01-01T23:41:03.286Z,95951.66
2023-01-01T23:43:33.655Z,95943.00
2023-01-01T23:46:03.424Z,95943.59
2023-01-01T23:48:31.344Z,95949.13
2023-01-01T23:50:59.564Z,95945.19
2023-01-01T23:53:27.219Z,95941.91
2023-01-01T23:55:55.316Z,95945.47
2023-01-01T23:58:23.134Z,95930.63
